Brooks, Canada
Current Conditions -  °F | °C
As of 5:00 AM on Sunday 23 Nov 2014 (Local Time) from CYXH Reporting Station
Overcast Overcast  
Wind Chill: 19°   Ceiling: 9700
Heat Index: 25°   Visibility: 9mi
Dew Point: 23°   Wind: 5mph
Humidity: 93%   Direction: 230°SW
Pressure: 29.82"   Gusts: NA
Location:  50.57°N, 111.9°W
Report Text: CYXH 231200Z AUTO 23004KT 9SM FEW075 OVC097 M04/M05 A2982 RMK SLP124
Loading
Personal Weather Stations






























Interactive Weather Map New forecast layout! Learn more

10-Day Weather Forecast

Advertisements
Track Severe Weather on mobile